Time;durP1;ratioP1;P1;durP2;ratioP2;P2;SDS_P1;SDS_P2;PMS_P1;PMS_P2;Temp;Humidity;BMP_temperature;BMP_pressure;BME280_temperature;BME280_humidity;BME280_pressure;Samples;Min_cycle;Max_cycle;Signal;HPM_P1;HPM_P2
2023/04/25 00:02:25;;;;;;;6.10;3.60;;;7.10;86.90;;;;;;5046570;28;20185;-59
2023/04/25 00:04:51;;;;;;;4.03;3.20;;;7.10;89.80;;;;;;5069753;28;20202;-59
2023/04/25 00:07:17;;;;;;;3.20;2.67;;;7.20;91.10;;;;;;5061064;28;20178;-59
2023/04/25 00:09:43;;;;;;;6.87;3.60;;;7.10;92.40;;;;;;5067723;28;20425;-60
2023/04/25 00:12:08;;;;;;;5.63;3.40;;;7.10;93.70;;;;;;5062877;28;20178;-61
2023/04/25 00:14:35;;;;;;;6.43;3.50;;;7.10;95.10;;;;;;5060046;28;20183;-59
2023/04/25 00:17:01;;;;;;;7.53;3.30;;;7.10;95.30;;;;;;5063753;28;20864;-61
2023/04/25 00:19:28;;;;;;;6.53;3.37;;;7.10;96.10;;;;;;5065771;28;20421;-61
2023/04/25 00:21:55;;;;;;;5.43;2.90;;;7.10;96.50;;;;;;5057141;28;20426;-60
2023/04/25 00:24:20;;;;;;;12.83;3.77;;;7.10;96.60;;;;;;5062045;28;20507;-58
2023/04/25 00:26:46;;;;;;;5.10;3.10;;;7.00;97.10;;;;;;5065327;28;20520;-56
2023/04/25 00:29:12;;;;;;;6.63;3.50;;;7.00;97.40;;;;;;5058783;28;20689;-59
2023/04/25 00:31:37;;;;;;;8.43;3.40;;;7.00;98.70;;;;;;5056890;28;20686;-59
2023/04/25 00:34:03;;;;;;;6.50;3.40;;;7.00;99.70;;;;;;5064775;28;20637;-58
2023/04/25 00:36:29;;;;;;;8.37;3.40;;;7.00;99.70;;;;;;5068018;28;20210;-60
2023/04/25 00:38:54;;;;;;;5.03;3.57;;;7.00;99.50;;;;;;5046845;28;20175;-56
2023/04/25 00:41:20;;;;;;;5.33;3.00;;;6.90;98.70;;;;;;5065894;28;20589;-60
2023/04/25 00:43:48;;;;;;;7.30;3.60;;;6.90;98.50;;;;;;5062000;28;20848;-58
2023/04/25 00:46:13;;;;;;;11.10;3.20;;;6.90;99.30;;;;;;5065050;28;20334;-59
2023/04/25 00:48:39;;;;;;;6.60;2.80;;;6.90;99.60;;;;;;5038587;28;21231;-59
2023/04/25 00:51:06;;;;;;;5.80;3.60;;;6.90;99.80;;;;;;5060784;28;20181;-59
2023/04/25 00:53:32;;;;;;;6.73;3.30;;;6.90;99.90;;;;;;5060107;28;20592;-58
2023/04/25 00:55:58;;;;;;;6.90;3.27;;;6.90;99.70;;;;;;5051395;28;20469;-60
2023/04/25 00:58:24;;;;;;;8.50;3.53;;;6.90;99.90;;;;;;5062995;28;20887;-60
2023/04/25 01:00:51;;;;;;;4.10;3.50;;;6.90;99.80;;;;;;5060767;28;21136;-59
2023/04/25 01:03:19;;;;;;;7.10;3.30;;;6.90;99.60;;;;;;5067521;28;20478;-59
2023/04/25 01:05:46;;;;;;;5.10;3.00;;;6.90;98.30;;;;;;5063908;28;20452;-60
2023/04/25 01:08:13;;;;;;;7.43;3.07;;;6.90;98.30;;;;;;5059182;28;20520;-59
2023/04/25 01:10:38;;;;;;;4.50;2.90;;;6.90;98.50;;;;;;5065999;28;20949;-57
2023/04/25 01:13:04;;;;;;;4.97;3.00;;;6.90;99.10;;;;;;5063403;28;20440;-59
2023/04/25 01:15:30;;;;;;;3.20;2.90;;;6.90;98.70;;;;;;5057413;28;20288;-59
2023/04/25 01:17:57;;;;;;;5.90;2.87;;;6.80;98.70;;;;;;5057962;28;20179;-59
2023/04/25 01:20:23;;;;;;;3.10;2.63;;;6.80;98.60;;;;;;5054527;28;20174;-58
2023/04/25 01:22:51;;;;;;;5.60;3.00;;;6.80;99.20;;;;;;5063310;28;20443;-59
2023/04/25 01:25:17;;;;;;;5.40;3.27;;;6.80;99.90;;;;;;5066322;28;20502;-58
2023/04/25 01:27:43;;;;;;;3.80;2.97;;;6.80;99.90;;;;;;5061876;28;20443;-60
2023/04/25 01:30:09;;;;;;;3.23;2.90;;;6.70;99.90;;;;;;5057434;28;20436;-58
2023/04/25 01:32:38;;;;;;;7.30;2.60;;;6.60;99.90;;;;;;5058832;28;20433;-59
2023/04/25 01:35:09;;;;;;;3.27;2.63;;;6.50;99.90;;;;;;5069895;28;20456;-58
2023/04/25 01:37:39;;;;;;;6.50;2.50;;;6.50;99.90;;;;;;5063609;28;20451;-59
2023/04/25 01:40:06;;;;;;;4.43;2.70;;;6.40;99.90;;;;;;5060308;28;20495;-59
2023/04/25 01:42:33;;;;;;;2.43;2.23;;;6.40;99.90;;;;;;5065645;28;20527;-59
2023/04/25 01:44:58;;;;;;;3.50;2.27;;;6.40;99.90;;;;;;5062560;28;20957;-58
2023/04/25 01:47:24;;;;;;;2.73;2.37;;;6.40;99.90;;;;;;5060525;28;20467;-59
2023/04/25 01:49:50;;;;;;;3.67;2.23;;;6.30;99.90;;;;;;5058652;28;20174;-59
2023/04/25 01:52:15;;;;;;;2.27;2.07;;;6.30;99.90;;;;;;5046370;28;20192;-60
2023/04/25 01:54:43;;;;;;;3.50;2.50;;;6.20;99.90;;;;;;5068093;28;20220;-60
2023/04/25 01:57:12;;;;;;;7.20;4.23;;;6.20;99.90;;;;;;5058519;28;20217;-60
2023/04/25 01:59:38;;;;;;;2.87;2.30;;;6.20;99.90;;;;;;5063803;28;20447;-60
2023/04/25 02:02:04;;;;;;;10.30;2.60;;;6.20;99.90;;;;;;5057851;28;20788;-61
2023/04/25 02:04:30;;;;;;;2.60;2.30;;;6.20;99.90;;;;;;5057986;28;20647;-60
2023/04/25 02:06:55;;;;;;;1.90;1.70;;;6.20;99.90;;;;;;5063367;28;20182;-59
2023/04/25 02:09:21;;;;;;;5.70;3.10;;;6.20;99.90;;;;;;5058286;28;20420;-59
2023/04/25 02:11:47;;;;;;;3.60;2.53;;;6.10;99.90;;;;;;5057645;28;20224;-60
2023/04/25 02:14:13;;;;;;;3.23;2.27;;;6.10;99.90;;;;;;5053482;28;20867;-60
2023/04/25 02:16:39;;;;;;;2.93;2.50;;;6.10;99.90;;;;;;5062060;28;20220;-60
2023/04/25 02:19:05;;;;;;;2.90;2.30;;;6.10;99.90;;;;;;5063499;28;20252;-60
2023/04/25 02:21:31;;;;;;;6.43;2.50;;;6.00;99.90;;;;;;5059857;28;20934;-60
2023/04/25 02:23:57;;;;;;;4.70;2.40;;;6.00;99.90;;;;;;5062700;28;20436;-60
2023/04/25 02:26:23;;;;;;;3.37;2.40;;;6.00;99.90;;;;;;5061991;28;20448;-61
2023/04/25 02:28:50;;;;;;;2.40;2.10;;;6.00;99.90;;;;;;5056604;28;20231;-60
2023/04/25 02:31:16;;;;;;;7.43;2.40;;;6.00;99.90;;;;;;5043475;28;20799;-61
2023/04/25 02:33:42;;;;;;;5.13;2.53;;;6.00;99.90;;;;;;5060415;28;20454;-60
2023/04/25 02:36:07;;;;;;;2.50;2.30;;;5.90;99.90;;;;;;5066490;28;20260;-60
2023/04/25 02:38:33;;;;;;;4.50;3.20;;;5.90;99.90;;;;;;5058639;28;20225;-60
2023/04/25 02:40:59;;;;;;;3.10;2.80;;;5.90;99.90;;;;;;5057298;28;20655;-60
2023/04/25 02:43:24;;;;;;;5.40;2.93;;;5.80;99.90;;;;;;5064767;28;20691;-60
2023/04/25 02:45:50;;;;;;;3.77;2.90;;;5.80;99.90;;;;;;5066015;28;20279;-60
2023/04/25 02:48:16;;;;;;;6.10;2.80;;;5.80;99.90;;;;;;5058779;28;20226;-59
2023/04/25 02:50:42;;;;;;;3.07;2.77;;;5.80;99.90;;;;;;5060146;28;20221;-60
2023/04/25 02:53:07;;;;;;;6.63;2.90;;;5.80;99.90;;;;;;5061195;28;21004;-59
2023/04/25 02:55:33;;;;;;;6.53;2.97;;;5.90;99.90;;;;;;5059938;28;20468;-60
2023/04/25 02:57:59;;;;;;;4.83;2.70;;;5.90;99.90;;;;;;5043004;28;20574;-60
2023/04/25 03:00:24;;;;;;;5.03;3.37;;;5.90;99.90;;;;;;5053596;28;21249;-60
2023/04/25 03:02:50;;;;;;;6.57;3.20;;;5.90;99.90;;;;;;5037016;28;20178;-60
2023/04/25 03:05:17;;;;;;;7.53;2.37;;;5.90;99.90;;;;;;5058143;28;20210;-59
2023/04/25 03:07:43;;;;;;;3.13;2.83;;;5.80;99.90;;;;;;5056858;28;20518;-60
2023/04/25 03:10:10;;;;;;;7.60;3.60;;;5.80;99.90;;;;;;5067372;28;21000;-60
2023/04/25 03:12:35;;;;;;;6.03;3.30;;;5.80;99.90;;;;;;5056267;28;20479;-59
2023/04/25 03:15:01;;;;;;;3.70;2.90;;;5.80;99.90;;;;;;5044171;28;20495;-59
2023/04/25 03:17:27;;;;;;;4.53;2.77;;;5.80;99.90;;;;;;5059938;28;20185;-60
2023/04/25 03:19:52;;;;;;;6.40;3.17;;;5.70;99.90;;;;;;5042358;28;20236;-59
2023/04/25 03:22:18;;;;;;;7.90;3.03;;;5.70;99.90;;;;;;5065218;28;20178;-60
2023/04/25 03:24:43;;;;;;;3.73;2.87;;;5.70;99.90;;;;;;5068895;28;20221;-61
2023/04/25 03:27:09;;;;;;;5.27;3.50;;;5.60;99.90;;;;;;5069304;28;20191;-60
2023/04/25 03:29:35;;;;;;;4.30;3.10;;;5.60;99.90;;;;;;5062785;28;20585;-60
2023/04/25 03:32:00;;;;;;;10.37;2.70;;;5.60;99.90;;;;;;5058669;28;20224;-60
2023/04/25 03:34:26;;;;;;;7.57;3.10;;;5.60;99.90;;;;;;5067219;28;20220;-60
2023/04/25 03:36:52;;;;;;;5.53;3.93;;;5.60;99.90;;;;;;5063517;28;20210;-60
2023/04/25 03:39:17;;;;;;;4.53;3.67;;;5.50;99.90;;;;;;5064040;28;20289;-60
2023/04/25 03:41:43;;;;;;;3.30;3.00;;;5.50;99.90;;;;;;5060492;28;20202;-60
2023/04/25 03:44:09;;;;;;;4.93;3.10;;;5.50;99.90;;;;;;5065579;28;20178;-60
2023/04/25 03:46:34;;;;;;;5.43;3.33;;;5.40;99.90;;;;;;5064664;28;20959;-60
2023/04/25 03:49:00;;;;;;;7.53;3.80;;;5.40;99.90;;;;;;5063576;28;20847;-60
2023/04/25 03:51:25;;;;;;;6.00;4.03;;;5.30;99.90;;;;;;5061876;28;20225;-61
2023/04/25 03:53:52;;;;;;;5.00;4.10;;;5.30;99.90;;;;;;5056025;28;20179;-61
2023/04/25 03:56:17;;;;;;;8.60;5.40;;;5.20;99.90;;;;;;5062411;28;20209;-59
2023/04/25 03:58:43;;;;;;;13.80;4.43;;;5.20;99.90;;;;;;5057393;28;20429;-59
2023/04/25 04:01:09;;;;;;;6.50;4.57;;;5.10;99.90;;;;;;5057107;28;20345;-59
2023/04/25 04:03:38;;;;;;;6.90;4.80;;;5.20;99.90;;;;;;5053842;28;20174;-60
2023/04/25 04:06:05;;;;;;;5.83;4.80;;;5.20;99.90;;;;;;5054647;28;20694;-59
2023/04/25 04:08:31;;;;;;;7.00;4.77;;;5.10;99.90;;;;;;5057953;28;20424;-60
2023/04/25 04:10:58;;;;;;;6.17;3.73;;;5.10;99.90;;;;;;5054967;28;20518;-57
2023/04/25 04:13:25;;;;;;;6.83;3.60;;;5.10;99.90;;;;;;5058067;28;20429;-58
2023/04/25 04:15:51;;;;;;;11.97;6.00;;;5.10;99.90;;;;;;5053466;28;20448;-60
2023/04/25 04:18:16;;;;;;;3.70;3.40;;;5.00;99.90;;;;;;5053784;28;20446;-59
2023/04/25 04:20:42;;;;;;;6.00;4.30;;;5.00;99.90;;;;;;5052842;28;20340;-60
2023/04/25 04:23:07;;;;;;;4.77;3.67;;;5.00;99.90;;;;;;5055472;28;20172;-58
2023/04/25 04:25:34;;;;;;;3.47;3.17;;;5.00;99.90;;;;;;5057836;28;20206;-59
2023/04/25 04:28:00;;;;;;;5.10;3.67;;;5.00;99.90;;;;;;5056223;28;20182;-59
2023/04/25 04:30:29;;;;;;;4.20;3.10;;;5.00;99.90;;;;;;5045361;28;20432;-59
2023/04/25 04:32:55;;;;;;;6.33;4.20;;;5.00;99.90;;;;;;5053579;28;20548;-60
2023/04/25 04:35:22;;;;;;;4.27;3.87;;;5.00;99.90;;;;;;5029881;28;20468;-59
2023/04/25 04:37:48;;;;;;;4.07;3.37;;;5.00;99.90;;;;;;5056867;28;20448;-61
2023/04/25 04:40:17;;;;;;;4.00;3.60;;;5.00;99.90;;;;;;5046378;28;20425;-60
2023/04/25 04:42:45;;;;;;;10.50;5.13;;;4.90;99.90;;;;;;5053817;28;20178;-60
2023/04/25 04:45:12;;;;;;;8.10;6.00;;;4.90;99.90;;;;;;5053382;28;20565;-60
2023/04/25 04:47:39;;;;;;;6.83;5.07;;;4.90;99.90;;;;;;5061249;28;20436;-61
2023/04/25 04:50:09;;;;;;;8.00;4.50;;;4.90;99.90;;;;;;5061593;28;20842;-61
2023/04/25 04:52:35;;;;;;;6.03;4.00;;;4.90;99.90;;;;;;5056032;28;20437;-60
2023/04/25 04:55:03;;;;;;;5.07;4.00;;;5.00;99.90;;;;;;5061021;28;21103;-59
2023/04/25 04:57:28;;;;;;;5.20;4.10;;;5.00;99.90;;;;;;5056915;28;20529;-60
2023/04/25 04:59:54;;;;;;;14.03;4.23;;;5.00;99.90;;;;;;5054130;28;20575;-60
2023/04/25 05:02:19;;;;;;;6.07;4.10;;;5.10;99.90;;;;;;5050366;28;20189;-59
2023/04/25 05:04:45;;;;;;;6.07;3.80;;;5.10;99.90;;;;;;5056972;28;20740;-59
2023/04/25 05:07:11;;;;;;;6.47;4.57;;;5.10;99.90;;;;;;5057512;28;20193;-60
2023/04/25 05:09:36;;;;;;;9.63;5.00;;;5.10;99.90;;;;;;5065300;28;20213;-60
2023/04/25 05:12:02;;;;;;;5.20;4.43;;;5.20;99.90;;;;;;5060201;28;20175;-60
2023/04/25 05:14:28;;;;;;;5.87;4.60;;;5.20;99.90;;;;;;5055383;28;20939;-59
2023/04/25 05:16:53;;;;;;;5.97;4.37;;;5.30;99.90;;;;;;5057783;28;20241;-60
2023/04/25 05:19:19;;;;;;;7.00;4.80;;;5.30;99.90;;;;;;5055702;28;20214;-59
2023/04/25 05:21:45;;;;;;;6.27;4.50;;;5.40;99.90;;;;;;5058482;28;20175;-59
2023/04/25 05:24:10;;;;;;;6.53;4.80;;;5.40;99.90;;;;;;5055048;28;20288;-65
2023/04/25 05:26:37;;;;;;;9.43;4.60;;;5.50;99.90;;;;;;5050562;28;20669;-61
2023/04/25 05:29:03;;;;;;;10.53;5.07;;;5.50;99.90;;;;;;5067886;28;20220;-59
2023/04/25 05:31:28;;;;;;;8.10;5.30;;;5.50;99.90;;;;;;5059056;28;21010;-60
2023/04/25 05:33:54;;;;;;;8.67;5.13;;;5.50;99.90;;;;;;5065146;28;20232;-60
2023/04/25 05:36:20;;;;;;;7.40;4.37;;;5.60;99.90;;;;;;5063143;28;20214;-59
2023/04/25 05:38:45;;;;;;;6.20;4.20;;;5.60;99.90;;;;;;5055265;28;20746;-60
2023/04/25 05:41:11;;;;;;;7.70;5.27;;;5.60;99.90;;;;;;5057792;28;20561;-60
2023/04/25 05:43:37;;;;;;;6.93;5.23;;;5.50;99.90;;;;;;5062699;28;20178;-59
2023/04/25 05:46:02;;;;;;;7.50;6.13;;;5.50;99.90;;;;;;5034498;28;20215;-59
2023/04/25 05:48:28;;;;;;;13.77;6.00;;;5.50;99.90;;;;;;5064653;28;20179;-60
2023/04/25 05:50:53;;;;;;;10.90;5.80;;;5.60;99.90;;;;;;5059500;28;20183;-60
2023/04/25 05:53:21;;;;;;;7.20;5.67;;;5.60;99.90;;;;;;5062192;28;20183;-60
2023/04/25 05:55:47;;;;;;;9.27;5.50;;;5.70;99.90;;;;;;5064235;28;20758;-60
2023/04/25 05:58:13;;;;;;;11.80;5.63;;;5.70;99.90;;;;;;5047608;28;20436;-60
2023/04/25 06:00:38;;;;;;;10.80;6.53;;;5.80;99.90;;;;;;5054672;28;20197;-61
2023/04/25 06:03:04;;;;;;;6.83;4.50;;;5.80;99.90;;;;;;5059647;28;20219;-60
2023/04/25 06:05:30;;;;;;;8.57;5.20;;;5.90;99.90;;;;;;5064063;28;20209;-60
2023/04/25 06:07:55;;;;;;;10.20;5.20;;;5.90;99.90;;;;;;5063708;28;20192;-60
2023/04/25 06:10:22;;;;;;;9.70;5.77;;;6.00;99.90;;;;;;5058418;28;20189;-61
2023/04/25 06:12:49;;;;;;;9.67;5.63;;;6.10;99.90;;;;;;5065349;28;20174;-60
2023/04/25 06:15:15;;;;;;;8.00;4.93;;;6.10;99.90;;;;;;5058753;28;20475;-60
2023/04/25 06:17:41;;;;;;;8.70;5.13;;;6.20;99.90;;;;;;5055685;28;20420;-61
2023/04/25 06:20:08;;;;;;;7.77;4.83;;;6.20;99.90;;;;;;5057460;28;20429;-61
2023/04/25 06:22:33;;;;;;;8.53;5.70;;;6.20;99.90;;;;;;5058724;28;20749;-61
2023/04/25 06:25:00;;;;;;;9.07;5.20;;;6.30;99.90;;;;;;5059195;28;20460;-60
2023/04/25 06:27:25;;;;;;;9.33;5.77;;;6.30;99.90;;;;;;5054536;28;20613;-61
2023/04/25 06:29:51;;;;;;;8.37;4.77;;;6.30;99.90;;;;;;5038576;28;20494;-60
2023/04/25 06:32:18;;;;;;;8.33;4.90;;;6.30;99.90;;;;;;5061770;28;20193;-60
2023/04/25 06:34:43;;;;;;;7.17;5.00;;;6.40;99.90;;;;;;5059363;28;20253;-59
2023/04/25 06:37:09;;;;;;;9.00;4.97;;;6.40;99.90;;;;;;5061788;28;20532;-61
2023/04/25 06:39:35;;;;;;;7.10;4.50;;;6.40;99.90;;;;;;5060886;28;20275;-60
2023/04/25 06:42:00;;;;;;;10.33;5.47;;;6.40;99.90;;;;;;5056065;28;20178;-60
2023/04/25 06:44:26;;;;;;;8.27;5.70;;;6.40;99.90;;;;;;5059348;28;20171;-60
2023/04/25 06:46:51;;;;;;;8.30;4.80;;;6.40;99.90;;;;;;5063386;28;20187;-60
2023/04/25 06:49:17;;;;;;;5.87;4.57;;;6.40;99.90;;;;;;5060669;28;20182;-60
2023/04/25 06:51:43;;;;;;;7.80;4.63;;;6.40;99.90;;;;;;5057995;28;20187;-60
2023/04/25 06:54:08;;;;;;;5.57;4.00;;;6.40;99.90;;;;;;5051152;28;20567;-60
2023/04/25 06:56:34;;;;;;;8.47;5.13;;;6.40;99.90;;;;;;5058244;28;20213;-61
2023/04/25 06:59:00;;;;;;;8.80;5.50;;;6.40;99.90;;;;;;5059749;28;20254;-60
2023/04/25 07:01:26;;;;;;;10.53;5.63;;;6.40;99.90;;;;;;5066803;28;20595;-60
2023/04/25 07:03:51;;;;;;;10.10;6.10;;;6.40;99.90;;;;;;5066490;28;20523;-60
2023/04/25 07:06:17;;;;;;;7.03;4.97;;;6.40;99.90;;;;;;5061690;28;20211;-60
2023/04/25 07:08:43;;;;;;;9.83;5.53;;;6.30;99.90;;;;;;5063683;28;20227;-60
2023/04/25 07:11:08;;;;;;;8.20;5.57;;;6.30;99.90;;;;;;5044961;28;20175;-60
2023/04/25 07:13:34;;;;;;;8.63;6.47;;;6.30;99.90;;;;;;5039862;28;20759;-60
2023/04/25 07:16:00;;;;;;;7.60;5.57;;;6.30;99.90;;;;;;5059529;28;20206;-60
2023/04/25 07:18:25;;;;;;;10.63;6.53;;;6.30;99.90;;;;;;5067421;28;20659;-61
2023/04/25 07:20:51;;;;;;;12.73;6.33;;;6.30;99.90;;;;;;5064872;28;20174;-59
2023/04/25 07:23:16;;;;;;;10.17;6.40;;;6.20;99.90;;;;;;5065473;28;20178;-60
2023/04/25 07:25:42;;;;;;;8.67;5.83;;;6.10;99.90;;;;;;5066520;28;20202;-59
2023/04/25 07:28:08;;;;;;;9.20;5.87;;;6.10;99.90;;;;;;5059505;28;20214;-60
2023/04/25 07:30:34;;;;;;;6.90;5.37;;;6.10;99.90;;;;;;5060480;28;20198;-60
2023/04/25 07:33:00;;;;;;;9.10;5.83;;;6.10;99.90;;;;;;5061722;28;20174;-60
2023/04/25 07:35:26;;;;;;;7.70;4.90;;;6.10;99.90;;;;;;5069183;28;20579;-61
2023/04/25 07:37:51;;;;;;;8.20;4.23;;;6.10;99.90;;;;;;5061966;28;20202;-60
2023/04/25 07:40:17;;;;;;;7.73;3.40;;;6.00;99.90;;;;;;5068265;28;20773;-60
2023/04/25 07:42:43;;;;;;;5.83;3.13;;;6.00;99.90;;;;;;5060840;28;20269;-60
2023/04/25 07:45:09;;;;;;;3.50;2.70;;;5.90;99.90;;;;;;5044600;28;20214;-60
2023/04/25 07:47:35;;;;;;;4.00;2.97;;;5.90;99.90;;;;;;5047398;28;20663;-59
2023/04/25 07:50:01;;;;;;;4.50;2.40;;;5.80;99.90;;;;;;5061236;28;20438;-61
2023/04/25 07:52:26;;;;;;;2.00;1.80;;;5.70;99.90;;;;;;5057649;28;20430;-61
2023/04/25 07:54:52;;;;;;;2.60;2.33;;;5.60;99.90;;;;;;5062452;28;20298;-60
2023/04/25 07:57:19;;;;;;;3.20;2.10;;;5.50;99.90;;;;;;5042722;28;20266;-60
2023/04/25 07:59:45;;;;;;;5.07;2.87;;;5.40;99.90;;;;;;5067079;28;20877;-60
2023/04/25 08:02:10;;;;;;;3.27;2.60;;;5.40;99.90;;;;;;5062846;28;20531;-60
2023/04/25 08:04:36;;;;;;;6.63;3.47;;;5.40;99.90;;;;;;5067790;28;20246;-61
2023/04/25 08:07:01;;;;;;;5.17;3.57;;;5.30;99.90;;;;;;5060951;28;20182;-60
2023/04/25 08:09:27;;;;;;;6.20;3.60;;;5.30;99.90;;;;;;5059783;28;20210;-60
2023/04/25 08:11:53;;;;;;;6.30;3.00;;;5.30;99.90;;;;;;5061092;28;20569;-59
2023/04/25 08:14:19;;;;;;;3.60;2.57;;;5.30;99.90;;;;;;5063410;28;20183;-56
2023/04/25 08:16:44;;;;;;;5.87;2.20;;;5.30;99.90;;;;;;5061498;28;20221;-56
2023/04/25 08:19:10;;;;;;;2.03;1.73;;;5.20;99.90;;;;;;5041290;28;20178;-60
2023/04/25 08:21:36;;;;;;;2.63;1.53;;;5.20;99.90;;;;;;5060343;28;20182;-60
2023/04/25 08:24:02;;;;;;;3.60;2.40;;;5.10;99.90;;;;;;5062616;28;20490;-60
2023/04/25 08:26:28;;;;;;;1.87;1.77;;;5.10;99.90;;;;;;5064775;28;20221;-60
2023/04/25 08:28:54;;;;;;;1.37;1.27;;;5.10;99.90;;;;;;5061583;28;20187;-61
2023/04/25 08:31:20;;;;;;;1.47;1.37;;;5.00;99.90;;;;;;5060642;28;20435;-60
2023/04/25 08:33:46;;;;;;;2.53;1.43;;;5.00;99.90;;;;;;5061106;28;20212;-60
2023/04/25 08:36:12;;;;;;;1.50;1.40;;;5.00;99.90;;;;;;5064454;28;20491;-61
2023/04/25 08:38:37;;;;;;;1.00;0.90;;;5.00;99.90;;;;;;5061765;28;20179;-60
2023/04/25 08:41:05;;;;;;;1.20;1.10;;;5.00;99.90;;;;;;5060690;28;20179;-59
2023/04/25 08:43:30;;;;;;;1.30;1.20;;;5.10;99.90;;;;;;5064992;28;20647;-60
2023/04/25 08:46:00;;;;;;;1.73;1.63;;;5.00;99.90;;;;;;5063542;28;20472;-60
2023/04/25 08:48:28;;;;;;;1.83;1.60;;;5.00;99.90;;;;;;5060833;28;20220;-60
2023/04/25 08:50:55;;;;;;;1.50;1.40;;;5.00;99.90;;;;;;5060146;28;20453;-60
2023/04/25 08:53:27;;;;;;;1.67;1.57;;;5.00;99.90;;;;;;5057211;28;20971;-61
2023/04/25 08:55:55;;;;;;;2.80;2.00;;;5.10;99.90;;;;;;5064892;28;21076;-60
2023/04/25 08:58:21;;;;;;;2.23;1.67;;;5.00;99.90;;;;;;5065656;28;20436;-60
2023/04/25 09:00:48;;;;;;;1.90;1.50;;;5.10;99.90;;;;;;5066972;28;20429;-64
2023/04/25 09:03:15;;;;;;;1.47;1.37;;;5.10;99.90;;;;;;5058070;28;20433;-60
2023/04/25 09:05:41;;;;;;;1.20;1.20;;;5.10;99.90;;;;;;5063154;28;20453;-60
2023/04/25 09:08:07;;;;;;;1.43;1.33;;;5.10;99.90;;;;;;5058084;28;20432;-61
2023/04/25 09:10:33;;;;;;;1.03;1.03;;;5.10;99.90;;;;;;5043713;28;20981;-61
2023/04/25 09:13:14;;;;;;;2.20;1.23;;;5.10;99.90;;;;;;5057624;28;20182;-60
2023/04/25 09:15:58;;;;;;;2.77;1.20;;;5.10;99.90;;;;;;5059556;28;20464;-60
2023/04/25 09:18:25;;;;;;;1.27;1.03;;;5.00;99.90;;;;;;5060024;28;20464;-61
2023/04/25 09:20:52;;;;;;;1.27;1.27;;;5.00;99.90;;;;;;5032836;28;20874;-60
2023/04/25 09:23:21;;;;;;;1.30;1.20;;;5.00;99.90;;;;;;5059308;28;20988;-60
2023/04/25 09:25:52;;;;;;;1.33;1.23;;;5.10;99.90;;;;;;5062350;28;20471;-60
2023/04/25 09:28:27;;;;;;;1.00;1.00;;;5.30;99.90;;;;;;5058758;28;20582;-61
2023/04/25 09:30:59;;;;;;;1.13;1.10;;;5.50;99.90;;;;;;5063732;28;20436;-60
2023/04/25 09:33:30;;;;;;;1.27;1.10;;;5.60;99.90;;;;;;5061320;28;20432;-59
2023/04/25 09:36:03;;;;;;;1.60;1.50;;;5.70;99.90;;;;;;5061420;28;20469;-59
2023/04/25 09:38:31;;;;;;;1.70;1.50;;;5.80;99.90;;;;;;5061986;28;20429;-60
2023/04/25 09:40:56;;;;;;;1.80;1.30;;;6.00;99.90;;;;;;5034627;28;20528;-60
2023/04/25 09:43:23;;;;;;;1.60;1.50;;;6.10;99.90;;;;;;5061110;28;20515;-60
2023/04/25 09:45:51;;;;;;;1.60;1.50;;;6.30;99.90;;;;;;5061953;28;20221;-61
2023/04/25 09:48:25;;;;;;;1.63;1.53;;;6.50;99.90;;;;;;5055452;28;20433;-59
2023/04/25 09:51:16;;;;;;;1.60;1.50;;;6.60;99.90;;;;;;5054617;28;20778;-60
2023/04/25 09:53:46;;;;;;;1.70;1.60;;;6.80;99.90;;;;;;5054594;28;20429;-60
2023/04/25 09:56:13;;;;;;;1.60;1.50;;;6.80;99.90;;;;;;5061958;28;20472;-60
2023/04/25 09:58:40;;;;;;;1.50;1.40;;;6.80;99.90;;;;;;5057664;28;20464;-59
2023/04/25 10:01:10;;;;;;;1.53;1.43;;;7.00;99.90;;;;;;5061250;28;20425;-61
2023/04/25 10:03:40;;;;;;;1.70;1.60;;;7.10;99.90;;;;;;5053015;28;21992;-60
2023/04/25 10:06:20;;;;;;;1.43;1.33;;;7.20;99.90;;;;;;5058250;28;20468;-61
2023/04/25 10:08:48;;;;;;;1.70;1.60;;;7.40;99.90;;;;;;5056894;28;20440;-56
2023/04/25 10:11:15;;;;;;;1.47;1.37;;;7.50;99.90;;;;;;5060143;28;21018;-56
2023/04/25 10:13:42;;;;;;;1.47;1.37;;;7.60;99.90;;;;;;5060040;28;20442;-61
2023/04/25 10:16:08;;;;;;;1.53;1.40;;;7.70;99.90;;;;;;5061441;28;20498;-61
2023/04/25 10:18:33;;;;;;;2.40;1.47;;;7.70;99.90;;;;;;5062156;28;20433;-61
2023/04/25 10:21:01;;;;;;;1.50;1.40;;;7.70;99.90;;;;;;5059142;28;20609;-60
2023/04/25 10:23:28;;;;;;;1.17;1.10;;;7.70;99.90;;;;;;5046822;28;20170;-60
2023/04/25 10:25:55;;;;;;;1.00;1.00;;;7.80;99.90;;;;;;5042860;28;21052;-60
2023/04/25 10:28:21;;;;;;;1.60;1.50;;;7.90;99.90;;;;;;5061159;28;20437;-61
2023/04/25 10:31:07;;;;;;;1.13;1.03;;;8.00;99.90;;;;;;5045171;28;20515;-61
2023/04/25 10:33:41;;;;;;;2.37;1.67;;;8.10;99.90;;;;;;5047195;28;20186;-61
2023/04/25 10:36:17;;;;;;;1.00;1.00;;;8.10;99.90;;;;;;5058063;28;20896;-61
2023/04/25 10:38:43;;;;;;;1.90;1.50;;;8.00;94.80;;;;;;5045678;28;20464;-61
2023/04/25 10:41:11;;;;;;;1.40;1.30;;;8.00;99.90;;;;;;5042881;28;20448;-61
2023/04/25 10:43:44;;;;;;;1.10;1.00;;;8.10;99.90;;;;;;5068519;28;20432;-61
2023/04/25 10:46:18;;;;;;;3.70;1.10;;;8.10;99.90;;;;;;5065691;28;20464;-61
2023/04/25 10:48:47;;;;;;;2.33;1.33;;;8.00;99.90;;;;;;5059987;28;20432;-62
2023/04/25 10:51:18;;;;;;;1.23;1.13;;;8.00;99.90;;;;;;5061913;28;20440;-61
2023/04/25 10:53:56;;;;;;;1.20;1.10;;;8.00;99.90;;;;;;5060724;28;20976;-62
2023/04/25 10:56:22;;;;;;;1.47;1.20;;;8.10;99.90;;;;;;5060562;28;20529;-62
2023/04/25 10:58:49;;;;;;;1.60;1.30;;;8.10;95.70;;;;;;5062216;28;20440;-62
2023/04/25 11:01:19;;;;;;;1.00;1.00;;;8.00;95.20;;;;;;5064824;28;20437;-61
2023/04/25 11:03:47;;;;;;;0.90;0.90;;;8.00;99.90;;;;;;5049666;28;20464;-61
2023/04/25 11:06:51;;;;;;;1.00;1.00;;;8.00;98.50;;;;;;5061689;28;20480;-61
2023/04/25 11:09:17;;;;;;;1.00;0.97;;;8.10;99.90;;;;;;5055623;28;20820;-62
2023/04/25 11:11:43;;;;;;;0.90;0.90;;;8.60;99.90;;;;;;5062879;28;20429;-61
2023/04/25 11:14:08;;;;;;;1.30;0.90;;;9.00;99.90;;;;;;5060621;28;20178;-61
2023/04/25 11:16:36;;;;;;;0.77;0.77;;;9.30;96.70;;;;;;5060391;28;20222;-61
2023/04/25 11:19:01;;;;;;;2.10;0.80;;;9.60;91.10;;;;;;5059617;28;20171;-61
2023/04/25 11:21:27;;;;;;;0.80;0.80;;;9.80;85.90;;;;;;5058466;28;20501;-61
2023/04/25 11:23:56;;;;;;;0.80;0.80;;;9.80;83.60;;;;;;5063571;28;20187;-61
2023/04/25 11:26:22;;;;;;;0.80;0.80;;;9.90;78.80;;;;;;5067730;28;20786;-61
2023/04/25 11:28:49;;;;;;;1.03;1.03;;;9.90;77.20;;;;;;5060713;28;20527;-60
2023/04/25 11:31:15;;;;;;;12.40;3.53;;;10.00;77.80;;;;;;5067019;28;20471;-61
2023/04/25 11:33:40;;;;;;;0.80;0.80;;;9.90;73.20;;;;;;5056156;28;20462;-61
2023/04/25 11:36:06;;;;;;;1.23;1.00;;;9.80;73.40;;;;;;5065450;28;20468;-61
2023/04/25 11:38:32;;;;;;;0.97;0.80;;;9.70;75.10;;;;;;5065988;28;20316;-61
2023/04/25 11:40:58;;;;;;;1.00;1.00;;;9.60;73.00;;;;;;5065379;28;20945;-60
2023/04/25 11:43:25;;;;;;;1.00;1.00;;;9.50;74.40;;;;;;5056340;28;20175;-61
2023/04/25 11:45:52;;;;;;;1.00;0.90;;;9.50;79.20;;;;;;5064509;28;20214;-61
2023/04/25 11:48:18;;;;;;;0.70;0.70;;;9.50;73.90;;;;;;5061119;28;20444;-61
2023/04/25 11:50:45;;;;;;;0.80;0.80;;;9.50;72.50;;;;;;5063397;28;20997;-61
2023/04/25 11:53:10;;;;;;;0.90;0.90;;;9.50;73.10;;;;;;5059464;28;20483;-60
2023/04/25 11:55:37;;;;;;;1.20;1.10;;;9.40;72.80;;;;;;5067121;28;20465;-60
2023/04/25 11:58:04;;;;;;;0.80;0.80;;;9.40;71.60;;;;;;5060696;28;20182;-61
2023/04/25 12:00:31;;;;;;;0.80;0.80;;;9.50;73.00;;;;;;5058480;28;20429;-61
2023/04/25 12:02:58;;;;;;;1.10;1.10;;;9.50;74.40;;;;;;5061105;28;20445;-62
2023/04/25 12:05:33;;;;;;;0.90;0.90;;;9.50;74.30;;;;;;5065756;28;20455;-61
2023/04/25 12:08:10;;;;;;;2.97;0.90;;;9.50;74.30;;;;;;5063857;28;20977;-61
2023/04/25 12:10:39;;;;;;;0.87;0.87;;;9.50;75.30;;;;;;5038235;28;20432;-61
2023/04/25 12:13:26;;;;;;;1.10;1.00;;;9.60;75.50;;;;;;5035851;28;20425;-61
2023/04/25 12:15:55;;;;;;;1.33;1.20;;;9.90;74.00;;;;;;5058690;28;20478;-62
2023/04/25 12:18:23;;;;;;;1.30;1.20;;;10.50;70.10;;;;;;5054422;28;20502;-62
2023/04/25 12:20:49;;;;;;;1.03;1.00;;;10.90;66.30;;;;;;5039266;28;20429;-61
2023/04/25 12:23:15;;;;;;;1.50;1.40;;;10.90;64.00;;;;;;5062421;28;20439;-61
2023/04/25 12:25:42;;;;;;;1.37;1.27;;;10.90;64.00;;;;;;5058127;28;20213;-61
2023/04/25 12:28:19;;;;;;;3.17;1.33;;;10.80;62.40;;;;;;5059320;28;20690;-61
2023/04/25 12:30:57;;;;;;;1.43;1.27;;;10.70;62.70;;;;;;5062325;28;20449;-61
2023/04/25 12:33:23;;;;;;;1.37;1.23;;;10.90;61.90;;;;;;5038122;28;20520;-58
2023/04/25 12:35:49;;;;;;;1.93;1.40;;;11.20;61.20;;;;;;5060795;28;20468;-60
2023/04/25 12:38:26;;;;;;;1.17;1.13;;;11.60;62.00;;;;;;5040344;28;20452;-61
2023/04/25 12:40:52;;;;;;;1.40;1.30;;;12.00;63.30;;;;;;5058557;28;20178;-60
2023/04/25 12:43:18;;;;;;;1.60;1.50;;;12.20;60.40;;;;;;5041254;28;20440;-60
2023/04/25 12:45:55;;;;;;;1.50;1.40;;;12.20;59.60;;;;;;5062979;28;20468;-60
2023/04/25 12:48:21;;;;;;;3.63;1.50;;;12.00;59.00;;;;;;5065621;28;20436;-60
2023/04/25 12:50:51;;;;;;;1.70;1.60;;;12.10;59.90;;;;;;5052670;28;20452;-61
2023/04/25 12:53:17;;;;;;;1.33;1.23;;;12.40;58.30;;;;;;5057078;28;20586;-61
2023/04/25 12:55:45;;;;;;;3.30;2.03;;;12.40;56.50;;;;;;5064620;28;20475;-61